Time;durP1;ratioP1;P1;durP2;ratioP2;P2;SDS_P1;SDS_P2;PMS_P1;PMS_P2;Temp;Humidity;BMP_temperature;BMP_pressure;BME280_temperature;BME280_humidity;BME280_pressure;Samples;Min_cycle;Max_cycle;Signal;HPM_P1;HPM_P2
2022/07/05 00:01:16;;;;;;;7.05;2.60;;;;;;;49.54;7.20;100542.47;5056241;28;20088;-63
2022/07/05 00:03:43;;;;;;;10.07;2.75;;;;;;;49.10;7.58;100547.38;5056144;28;20039;-63
2022/07/05 00:06:09;;;;;;;12.13;2.80;;;;;;;48.73;7.86;100534.28;5054725;28;20043;-61
2022/07/05 00:08:36;;;;;;;10.30;2.70;;;;;;;49.48;7.67;100538.88;5054419;28;20029;-61
2022/07/05 00:11:03;;;;;;;14.93;2.83;;;;;;;47.86;8.41;100537.88;5054437;28;20468;-62
2022/07/05 00:13:29;;;;;;;11.18;3.00;;;;;;;48.21;8.23;100537.19;5054538;28;20041;-62
2022/07/05 00:15:56;;;;;;;8.00;2.50;;;;;;;48.13;8.56;100537.00;5056026;28;20035;-61
2022/07/05 00:18:23;;;;;;;11.52;3.05;;;;;;;48.64;7.61;100534.59;5056454;28;20029;-61
2022/07/05 00:20:49;;;;;;;17.10;2.97;;;;;;;48.47;8.30;100538.88;5056109;28;20029;-61
2022/07/05 00:23:16;;;;;;;14.05;2.70;;;;;;;48.47;8.17;100533.91;5055956;28;20033;-62
2022/07/05 00:25:43;;;;;;;13.57;2.60;;;;;;;47.91;8.21;100528.44;5054188;28;20086;-62
2022/07/05 00:28:10;;;;;;;6.63;2.67;;;;;;;48.11;7.88;100525.19;5055885;28;20052;-62
2022/07/05 00:30:37;;;;;;;12.25;2.50;;;;;;;47.70;7.90;100530.84;5055932;28;20112;-61
2022/07/05 00:33:04;;;;;;;9.98;2.53;;;;;;;46.25;8.30;100533.66;5055391;28;20041;-62
2022/07/05 00:35:31;;;;;;;9.57;2.70;;;;;;;45.80;8.84;100533.47;5055713;28;20037;-61
2022/07/05 00:37:58;;;;;;;8.75;3.80;;;;;;;44.93;9.54;100530.25;5054513;28;20071;-61
2022/07/05 00:40:25;;;;;;;7.15;2.38;;;;;;;45.89;9.46;100526.72;5054527;28;20025;-61
2022/07/05 00:42:52;;;;;;;10.57;2.60;;;;;;;45.50;9.14;100521.53;5054292;28;20510;-60
2022/07/05 00:45:18;;;;;;;10.45;2.30;;;;;;;45.85;8.61;100521.22;5054064;28;20036;-61
2022/07/05 00:47:45;;;;;;;17.67;3.17;;;;;;;45.35;9.74;100532.41;5053776;28;20025;-60
2022/07/05 00:50:12;;;;;;;12.90;2.80;;;;;;;45.76;9.79;100527.16;5054954;28;20071;-61
2022/07/05 00:52:39;;;;;;;8.90;2.92;;;;;;;45.12;10.02;100528.56;5054773;28;20033;-60
2022/07/05 00:55:06;;;;;;;9.82;2.88;;;;;;;45.13;9.80;100533.78;5053685;28;20025;-61
2022/07/05 00:57:34;;;;;;;15.88;2.63;;;;;;;44.88;9.88;100526.78;5053686;28;20487;-59
2022/07/05 01:00:01;;;;;;;14.10;2.45;;;;;;;45.14;9.40;100526.75;5051087;28;20024;-61
2022/07/05 01:02:28;;;;;;;8.48;2.42;;;;;;;44.91;9.43;100519.28;5047123;28;20029;-61
2022/07/05 01:04:54;;;;;;;10.68;2.35;;;;;;;44.54;9.56;100525.69;5048621;28;20037;-62
2022/07/05 01:07:23;;;;;;;6.18;2.30;;;;;;;43.81;10.33;100526.06;5051754;28;20082;-60
2022/07/05 01:09:50;;;;;;;8.27;2.92;;;;;;;42.98;10.64;100512.06;5047162;28;20033;-61
2022/07/05 01:12:18;;;;;;;10.38;2.70;;;;;;;43.45;10.60;100527.34;5047924;28;20029;-62
2022/07/05 01:14:45;;;;;;;63.92;5.32;;;;;;;43.70;9.60;100521.00;5043883;28;20041;-61
2022/07/05 01:17:12;;;;;;;13.88;3.42;;;;;;;43.86;9.44;100531.88;5044625;28;20111;-62
2022/07/05 01:19:39;;;;;;;12.13;3.40;;;;;;;43.64;10.09;100531.56;5046537;28;20025;-61
2022/07/05 01:22:17;;;;;;;6.97;3.08;;;;;;;43.55;10.25;100534.53;5044863;28;20460;-64
2022/07/05 01:24:46;;;;;;;8.00;2.80;;;;;;;42.75;10.64;100534.53;5044254;28;20116;-60
2022/07/05 01:27:13;;;;;;;9.02;2.67;;;;;;;42.31;11.03;100537.28;5034089;28;20038;-63
2022/07/05 01:29:41;;;;;;;9.75;2.67;;;;;;;41.81;11.00;100536.22;5036636;28;20033;-61
2022/07/05 01:32:08;;;;;;;8.43;2.38;;;;;;;41.56;11.74;100532.53;5035747;28;20400;-63
2022/07/05 01:34:39;;;;;;;16.73;2.80;;;;;;;41.41;11.52;100542.28;5038007;28;20520;-61
2022/07/05 01:37:07;;;;;;;7.20;2.45;;;;;;;41.11;12.14;100544.91;5036336;28;20499;-62
2022/07/05 01:39:34;;;;;;;9.68;2.28;;;;;;;40.74;11.78;100535.63;5036895;28;20029;-62
2022/07/05 01:42:01;;;;;;;8.73;2.35;;;;;;;41.01;11.95;100538.47;5051788;28;20501;-59
2022/07/05 01:44:30;;;;;;;9.75;2.55;;;;;;;41.01;11.82;100538.47;5036755;28;20113;-61
2022/07/05 01:47:03;;;;;;;11.90;2.42;;;;;;;40.87;11.77;100539.13;5036070;28;20052;-60
2022/07/05 01:49:35;;;;;;;55.40;4.05;;;;;;;40.88;11.73;100546.41;5037367;28;20270;-63
2022/07/05 01:52:12;;;;;;;9.15;2.22;;;;;;;40.39;12.00;100550.25;5037316;28;20037;-62
2022/07/05 01:54:41;;;;;;;13.02;2.28;;;;;;;40.26;12.16;100546.75;5049344;28;20033;-62
2022/07/05 01:57:08;;;;;;;12.98;2.22;;;;;;;40.33;11.90;100549.28;5052447;28;20549;-61
2022/07/05 01:59:36;;;;;;;10.95;2.42;;;;;;;40.13;12.57;100554.66;5053643;28;20130;-63
2022/07/05 02:02:05;;;;;;;6.47;2.33;;;;;;;39.90;12.52;100552.38;5034915;28;20023;-62
2022/07/05 02:04:34;;;;;;;8.35;2.55;;;;;;;39.64;13.43;100552.63;5049929;28;20044;-62
2022/07/05 02:07:07;;;;;;;11.50;2.53;;;;;;;39.41;13.18;100556.78;5034300;28;20503;-61
2022/07/05 02:09:34;;;;;;;9.65;2.80;;;;;;;39.41;13.48;100559.63;5036982;28;20033;-62
2022/07/05 02:12:03;;;;;;;9.38;2.80;;;;;;;39.33;13.42;100555.50;5050515;28;20029;-61
2022/07/05 02:14:30;;;;;;;13.30;4.75;;;;;;;39.16;13.96;100552.13;5032970;28;20082;-61
2022/07/05 02:16:57;;;;;;;13.20;3.30;;;;;;;38.94;13.47;100559.84;5034647;28;20499;-62
2022/07/05 02:19:25;;;;;;;9.45;2.78;;;;;;;38.67;13.80;100561.25;5035288;28;20038;-63
2022/07/05 02:21:55;;;;;;;14.65;2.38;;;;;;;38.43;13.59;100562.94;5034631;28;20487;-62
2022/07/05 02:24:22;;;;;;;7.78;2.10;;;;;;;38.05;14.12;100560.97;5035918;28;20151;-60
2022/07/05 02:27:11;;;;;;;24.92;3.85;;;;;;;37.87;14.45;100568.50;5034073;28;20040;-64
2022/07/05 02:29:38;;;;;;;14.68;2.90;;;;;;;37.77;14.94;100567.63;5034591;28;20373;-62
2022/07/05 02:32:06;;;;;;;16.95;2.85;;;;;;;37.53;15.01;100572.84;5033201;28;20154;-62
2022/07/05 02:34:33;;;;;;;9.25;2.28;;;;;;;37.36;15.05;100572.16;5038069;28;20044;-63
2022/07/05 02:37:00;;;;;;;7.88;2.22;;;;;;;37.19;15.24;100573.47;5034052;28;20034;-63
2022/07/05 02:39:28;;;;;;;12.23;2.22;;;;;;;37.03;15.22;100573.56;5034590;28;20535;-61
2022/07/05 02:41:57;;;;;;;9.05;2.33;;;;;;;36.86;15.41;100576.47;5036440;28;20506;-62
2022/07/05 02:44:25;;;;;;;13.85;2.15;;;;;;;36.76;15.27;100580.38;5051133;28;20041;-61
2022/07/05 02:46:52;;;;;;;14.82;2.25;;;;;;;36.60;15.18;100577.59;5036441;28;20026;-61
2022/07/05 02:49:20;;;;;;;13.52;2.55;;;;;;;36.36;15.60;100573.44;5049162;28;20056;-63
2022/07/05 02:51:47;;;;;;;12.98;2.78;;;;;;;36.25;15.92;100574.47;5050372;28;20115;-64
2022/07/05 02:54:14;;;;;;;14.05;3.80;;;;;;;35.89;16.20;100573.78;5036251;28;20305;-62
2022/07/05 02:56:42;;;;;;;8.20;2.58;;;;;;;35.56;17.13;100590.75;5049525;28;20550;-63
2022/07/05 02:59:12;;;;;;;9.70;2.97;;;;;;;35.48;17.00;100583.66;5049148;28;20606;-62
2022/07/05 03:01:39;;;;;;;15.05;2.90;;;;;;;35.61;17.29;100583.75;5049986;28;20088;-62
2022/07/05 03:04:11;;;;;;;14.18;2.35;;;;;;;35.59;17.06;100595.50;5033982;28;20025;-63
2022/07/05 03:06:42;;;;;;;13.57;2.63;;;;;;;35.54;17.01;100598.03;5037844;28;20033;-63
2022/07/05 03:09:08;;;;;;;17.65;3.67;;;;;;;35.48;16.57;100586.47;5049068;28;20364;-63
2022/07/05 03:11:37;;;;;;;16.10;4.15;;;;;;;35.53;15.12;100597.25;5034704;28;20030;-62
2022/07/05 03:14:05;;;;;;;16.88;3.35;;;;;;;35.39;14.88;100598.41;5032823;28;20076;-61
2022/07/05 03:16:33;;;;;;;19.15;3.70;;;;;;;35.19;15.15;100610.91;5033815;28;20025;-63
2022/07/05 03:19:00;;;;;;;16.33;3.40;;;;;;;35.13;15.00;100605.78;5048419;28;20084;-62
2022/07/05 03:21:27;;;;;;;21.27;3.03;;;;;;;35.05;14.84;100595.09;5049735;28;20052;-62
2022/07/05 03:23:54;;;;;;;19.17;3.90;;;;;;;34.91;15.08;100613.13;5031163;28;20025;-62
2022/07/05 03:26:21;;;;;;;21.45;3.45;;;;;;;34.76;15.51;100608.94;5048585;28;20037;-63
2022/07/05 03:28:48;;;;;;;18.95;3.50;;;;;;;34.69;15.13;100604.25;5038524;28;20157;-62
2022/07/05 03:31:14;;;;;;;15.43;3.53;;;;;;;34.59;15.54;100618.56;5032906;28;20044;-62
2022/07/05 03:33:43;;;;;;;19.35;3.58;;;;;;;34.61;15.56;100627.38;5033714;28;20166;-62
2022/07/05 03:36:11;;;;;;;23.50;3.50;;;;;;;34.52;15.64;100625.94;5037503;28;20036;-64
2022/07/05 03:38:40;;;;;;;16.48;2.63;;;;;;;34.48;15.49;100630.06;5039076;28;20040;-63
2022/07/05 03:41:06;;;;;;;17.00;2.97;;;;;;;34.31;16.05;100631.16;5032801;28;20026;-62
2022/07/05 03:43:33;;;;;;;13.45;2.60;;;;;;;34.12;15.98;100627.84;5034093;28;20029;-63
2022/07/05 03:46:00;;;;;;;18.35;3.10;;;;;;;34.22;16.02;100629.66;5033309;28;20081;-62
2022/07/05 03:48:29;;;;;;;18.20;3.22;;;;;;;34.06;16.11;100634.38;5035215;28;20370;-62
2022/07/05 03:50:57;;;;;;;20.00;3.17;;;;;;;34.18;16.23;100636.59;5048704;28;20402;-63
2022/07/05 03:53:23;;;;;;;18.02;2.72;;;;;;;34.25;20.64;100647.75;5033837;28;20128;-62
2022/07/05 03:55:50;;;;;;;13.38;2.90;;;;;;;34.05;21.27;100646.88;5032559;28;20045;-64
2022/07/05 03:58:17;;;;;;;17.55;2.88;;;;;;;34.01;22.68;100654.59;5033440;28;20030;-62
2022/07/05 04:00:45;;;;;;;17.35;2.78;;;;;;;33.97;23.48;100653.88;5054393;28;20041;-61
2022/07/05 04:03:15;;;;;;;15.25;2.92;;;;;;;33.78;24.45;100656.13;5047312;28;20047;-63
2022/07/05 04:05:44;;;;;;;12.20;2.92;;;;;;;33.76;24.18;100661.41;5049824;28;20033;-62
2022/07/05 04:08:11;;;;;;;16.77;3.20;;;;;;;33.55;24.48;100662.47;5049480;28;20048;-62
2022/07/05 04:10:43;;;;;;;17.95;3.30;;;;;;;33.28;24.97;100676.50;5050281;28;20021;-63
2022/07/05 04:13:12;;;;;;;17.13;3.63;;;;;;;33.20;25.27;100677.78;5049921;28;20047;-65
2022/07/05 04:15:39;;;;;;;15.95;2.95;;;;;;;33.09;24.92;100679.16;5049986;28;20020;-63
2022/07/05 04:18:06;;;;;;;20.35;3.00;;;;;;;32.92;26.40;100693.03;5049938;28;20128;-62
2022/07/05 04:20:36;;;;;;;16.23;3.33;;;;;;;32.69;26.87;100699.25;5047764;28;20021;-62
2022/07/05 04:23:04;;;;;;;30.65;3.85;;;;;;;32.45;28.28;100692.63;5050751;28;20025;-63
2022/07/05 04:25:31;;;;;;;15.90;3.38;;;;;;;32.36;28.50;100702.78;5049775;28;20028;-62
2022/07/05 04:28:05;;;;;;;18.47;2.93;;;;;;;32.33;28.17;100700.78;5050184;28;20064;-63
2022/07/05 04:30:34;;;;;;;35.00;16.08;;;;;;;32.28;29.09;100706.84;5050325;28;20282;-62
2022/07/05 04:33:01;;;;;;;55.13;5.45;;;;;;;32.52;29.13;100707.88;5050129;28;20056;-61
2022/07/05 04:35:28;;;;;;;98.18;9.40;;;;;;;32.34;31.40;100711.63;5049964;28;20049;-62
2022/07/05 04:37:55;;;;;;;21.77;2.97;;;;;;;32.11;31.15;100719.78;5050672;28;20049;-61
2022/07/05 04:40:23;;;;;;;31.85;3.30;;;;;;;31.94;29.90;100721.50;5050264;28;20414;-61
2022/07/05 04:42:50;;;;;;;32.47;2.70;;;;;;;31.89;24.74;100713.50;5052669;28;20091;-62
2022/07/05 04:45:18;;;;;;;23.73;3.70;;;;;;;31.94;22.63;100718.69;5055088;28;20433;-63
2022/07/05 04:47:45;;;;;;;31.65;4.00;;;;;;;31.92;25.23;100723.13;5053663;28;20021;-62
2022/07/05 04:50:13;;;;;;;21.23;3.38;;;;;;;32.00;20.69;100730.31;5053330;28;20530;-61
2022/07/05 04:52:40;;;;;;;12.38;2.50;;;;;;;31.84;21.56;100730.81;5053518;28;20041;-62
2022/07/05 04:55:07;;;;;;;21.05;3.58;;;;;;;31.64;23.17;100726.88;5054570;28;20067;-63
2022/07/05 04:57:41;;;;;;;17.25;3.85;;;;;;;31.82;22.40;100725.59;5055246;28;20040;-62
2022/07/05 05:00:13;;;;;;;10.23;2.92;;;;;;;31.97;22.02;100726.31;5054626;28;20029;-61
2022/07/05 05:02:40;;;;;;;13.07;3.45;;;;;;;31.88;23.20;100734.38;5053774;28;20491;-62
2022/07/05 05:05:08;;;;;;;23.50;10.43;;;;;;;31.53;26.48;100724.91;5054267;28;20732;-62
2022/07/05 05:07:37;;;;;;;16.30;3.95;;;;;;;31.38;28.70;100733.78;5055195;28;20033;-62
2022/07/05 05:10:05;;;;;;;21.83;4.70;;;;;;;31.27;30.66;100733.84;5054846;28;20498;-62
2022/07/05 05:12:32;;;;;;;27.40;5.10;;;;;;;31.19;29.12;100735.03;5052517;28;20037;-61
2022/07/05 05:14:59;;;;;;;16.35;3.72;;;;;;;31.12;26.96;100733.03;5054765;28;20033;-61
2022/07/05 05:17:26;;;;;;;14.55;3.83;;;;;;;31.05;25.18;100727.41;5055415;28;20120;-62
2022/07/05 05:19:53;;;;;;;12.75;3.20;;;;;;;30.92;23.71;100741.09;5054731;28;20098;-61
2022/07/05 05:22:19;;;;;;;15.77;3.08;;;;;;;30.89;23.20;100738.31;5051719;28;20029;-62
2022/07/05 05:24:46;;;;;;;11.23;2.78;;;;;;;31.04;19.69;100747.47;5052473;28;20025;-62
2022/07/05 05:27:13;;;;;;;11.55;2.20;;;;;;;31.10;19.08;100729.84;5053060;28;20483;-61
2022/07/05 05:29:39;;;;;;;11.52;2.30;;;;;;;31.23;18.97;100739.44;5053246;28;20013;-62
2022/07/05 05:32:06;;;;;;;15.07;2.78;;;;;;;31.27;18.95;100736.66;5053212;28;20033;-61
2022/07/05 05:34:33;;;;;;;14.73;2.95;;;;;;;31.14;17.66;100743.84;5052808;28;20037;-61
2022/07/05 05:37:00;;;;;;;13.23;2.33;;;;;;;31.21;17.08;100736.22;5054101;28;20040;-61
2022/07/05 05:39:26;;;;;;;10.98;2.65;;;;;;;31.20;17.54;100745.88;5054660;28;20025;-61
2022/07/05 05:41:53;;;;;;;9.85;2.28;;;;;;;31.12;18.68;100749.88;5054591;28;20517;-62
2022/07/05 05:44:19;;;;;;;11.77;2.50;;;;;;;30.74;18.28;100729.09;5054446;28;20383;-61
2022/07/05 05:46:46;;;;;;;8.75;2.38;;;;;;;30.56;18.05;100742.28;5054464;28;20035;-62
2022/07/05 05:49:13;;;;;;;153.40;9.65;;;;;;;30.60;18.50;100745.91;5053971;28;20017;-61
2022/07/05 05:51:39;;;;;;;12.85;2.85;;;;;;;30.65;17.94;100745.50;5052988;28;20030;-62
2022/07/05 05:54:06;;;;;;;18.50;2.47;;;;;;;30.48;18.14;100752.69;5053469;28;20025;-60
2022/07/05 05:56:33;;;;;;;33.15;3.38;;;;;;;30.25;18.80;100741.06;5054250;28;20120;-61
2022/07/05 05:58:59;;;;;;;19.80;2.38;;;;;;;30.38;17.96;100745.91;5053521;28;20021;-61
2022/07/05 06:01:26;;;;;;;25.35;3.45;;;;;;;30.39;18.35;100746.69;5052368;28;20028;-63
2022/07/05 06:03:53;;;;;;;11.73;3.78;;;;;;;30.52;17.80;100745.09;5052522;28;20025;-63
2022/07/05 06:06:20;;;;;;;9.98;3.35;;;;;;;30.47;18.73;100748.28;5052261;28;20501;-62
2022/07/05 06:08:46;;;;;;;9.65;2.20;;;;;;;30.37;19.07;100755.50;5052218;28;20507;-62
2022/07/05 06:11:13;;;;;;;6.82;2.42;;;;;;;30.36;18.34;100753.91;5052383;28;20039;-62
2022/07/05 06:13:40;;;;;;;11.25;2.63;;;;;;;30.26;18.59;100760.28;5052478;28;20104;-62
2022/07/05 06:16:07;;;;;;;12.55;2.50;;;;;;;30.09;19.15;100758.25;5052597;28;20040;-62
2022/07/05 06:18:34;;;;;;;5.80;2.03;;;;;;;30.03;19.09;100754.22;5052463;28;20490;-62
2022/07/05 06:21:01;;;;;;;18.40;2.53;;;;;;;30.05;19.47;100760.25;5052275;28;20075;-62
2022/07/05 06:23:28;;;;;;;9.80;1.88;;;;;;;30.01;19.07;100759.41;5049436;28;20537;-63
2022/07/05 06:25:55;;;;;;;8.02;1.65;;;;;;;30.02;18.88;100775.03;5034607;28;20037;-62
2022/07/05 06:28:22;;;;;;;10.98;1.90;;;;;;;29.95;18.99;100763.78;5052216;28;20569;-61
2022/07/05 06:30:49;;;;;;;11.63;2.05;;;;;;;30.01;19.13;100776.22;5051499;28;20037;-62
2022/07/05 06:33:15;;;;;;;10.27;1.83;;;;;;;29.97;18.67;100778.19;5051180;28;20118;-64
2022/07/05 06:35:42;;;;;;;7.22;1.50;;;;;;;29.84;18.98;100766.56;5050619;28;20053;-63
2022/07/05 06:38:10;;;;;;;6.00;1.65;;;;;;;29.81;18.88;100772.16;5051606;28;20059;-63
2022/07/05 06:40:39;;;;;;;5.82;2.10;;;;;;;29.78;19.10;100782.13;5051110;28;20033;-61
2022/07/05 06:43:08;;;;;;;9.93;1.88;;;;;;;29.70;19.05;100775.72;5052285;28;20534;-64
2022/07/05 06:45:57;;;;;;;5.85;1.50;;;;;;;29.61;18.68;100769.66;5053698;28;20048;-63
2022/07/05 06:48:24;;;;;;;9.70;1.90;;;;;;;29.59;18.87;100772.06;5052269;28;20033;-62
2022/07/05 06:50:51;;;;;;;4.72;1.50;;;;;;;29.62;18.90;100776.88;5052172;28;20102;-62
2022/07/05 06:53:17;;;;;;;6.22;1.48;;;;;;;29.54;18.84;100772.44;5052245;28;20032;-62
2022/07/05 06:55:44;;;;;;;8.55;1.98;;;;;;;29.49;18.86;100784.03;5067637;28;20029;-62
2022/07/05 06:58:11;;;;;;;6.68;1.88;;;;;;;29.41;19.55;100785.94;5052252;28;20051;-63
2022/07/05 07:00:39;;;;;;;7.05;1.60;;;;;;;29.45;18.92;100791.59;5052330;28;20017;-62
2022/07/05 07:03:06;;;;;;;7.90;1.50;;;;;;;29.46;19.26;100785.63;5051831;28;20037;-62
2022/07/05 07:05:33;;;;;;;4.13;1.40;;;;;;;29.41;19.00;100794.34;5051594;28;20040;-62
2022/07/05 07:10:44;;;;;;;105.28;5.80;;;;;;;29.30;19.03;100792.69;5052080;28;20442;-64
2022/07/05 07:13:11;;;;;;;6.30;1.42;;;;;;;29.26;19.39;100797.44;5052071;28;20475;-62
2022/07/05 07:15:38;;;;;;;6.55;1.52;;;;;;;29.21;19.62;100795.00;5051929;28;20099;-62
2022/07/05 07:18:05;;;;;;;3.80;1.25;;;;;;;29.12;19.46;100801.78;5050842;28;20025;-62
2022/07/05 07:20:31;;;;;;;6.22;1.55;;;;;;;28.97;19.94;100802.03;5051974;28;20045;-61
2022/07/05 07:22:58;;;;;;;4.40;1.40;;;;;;;28.80;20.55;100798.69;5049949;28;20013;-63
2022/07/05 07:25:25;;;;;;;6.70;1.27;;;;;;;28.80;20.09;100798.69;5051748;28;20036;-61
2022/07/05 07:27:54;;;;;;;7.43;1.23;;;;;;;28.86;19.91;100801.94;5052665;28;20111;-61
2022/07/05 07:30:24;;;;;;;4.78;1.45;;;;;;;28.87;19.64;100801.56;5052901;28;20063;-61
2022/07/05 07:32:52;;;;;;;3.45;1.05;;;;;;;28.69;19.99;100808.16;5052514;28;20063;-62
2022/07/05 07:35:19;;;;;;;13.48;1.73;;;;;;;28.44;20.91;100811.53;5052399;28;20037;-62
2022/07/05 07:37:46;;;;;;;6.05;1.40;;;;;;;28.27;21.05;100812.97;5052676;28;20025;-61
2022/07/05 07:40:13;;;;;;;8.15;1.40;;;;;;;28.14;21.05;100810.78;5052599;28;20481;-62
2022/07/05 07:42:40;;;;;;;10.75;1.52;;;;;;;28.15;20.89;100809.59;5052427;28;20119;-62
2022/07/05 07:45:07;;;;;;;11.18;1.65;;;;;;;27.94;20.79;100808.16;5050919;28;20457;-60
2022/07/05 07:47:36;;;;;;;9.70;1.77;;;;;;;27.92;21.47;100816.13;5052493;28;20041;-60
2022/07/05 07:50:04;;;;;;;6.60;1.63;;;;;;;27.86;22.41;100806.47;5052563;28;20594;-61
2022/07/05 07:52:33;;;;;;;4.68;1.42;;;;;;;27.81;22.11;100803.19;5052309;28;20032;-60
2022/07/05 07:55:01;;;;;;;8.38;2.03;;;;;;;27.78;22.39;100813.13;5052379;28;20021;-61
2022/07/05 07:57:28;;;;;;;23.00;2.20;;;;;;;27.68;22.24;100809.03;5052417;28;20033;-61
2022/07/05 07:59:55;;;;;;;11.27;2.70;;;;;;;27.55;22.85;100810.41;5052517;28;20170;-64
2022/07/05 08:02:22;;;;;;;12.73;2.33;;;;;;;27.47;22.40;100807.88;5052164;28;20103;-62
2022/07/05 08:04:50;;;;;;;5.03;1.67;;;;;;;27.46;22.74;100809.06;5052140;28;20028;-63
2022/07/05 08:07:18;;;;;;;8.20;1.90;;;;;;;27.64;22.66;100804.56;5052074;28;20045;-61
2022/07/05 08:09:45;;;;;;;7.47;1.92;;;;;;;27.60;23.24;100798.91;5052183;28;20021;-63
2022/07/05 08:12:12;;;;;;;5.75;1.88;;;;;;;27.51;22.63;100803.19;5051221;28;20120;-63
2022/07/05 08:14:38;;;;;;;7.03;1.80;;;;;;;27.36;22.92;100797.41;5052366;28;20502;-63
2022/07/05 08:17:08;;;;;;;11.23;1.65;;;;;;;27.35;23.24;100804.16;5054213;28;20099;-63
2022/07/05 08:22:21;;;;;;;8.35;1.90;;;;;;;27.27;23.17;100802.44;5056061;28;20029;-64
2022/07/05 08:24:48;;;;;;;10.55;1.90;;;;;;;27.24;23.44;100802.38;5055628;28;20039;-62
2022/07/05 08:27:15;;;;;;;11.43;2.10;;;;;;;27.16;24.04;100803.47;5056039;28;20041;-62
2022/07/05 08:29:43;;;;;;;10.63;2.13;;;;;;;27.06;24.51;100788.16;5056094;28;20479;-62
2022/07/05 08:32:10;;;;;;;8.02;2.28;;;;;;;27.09;24.16;100807.75;5055934;28;20029;-63
2022/07/05 08:34:37;;;;;;;8.25;2.22;;;;;;;26.97;24.23;100794.00;5055623;28;20041;-64
2022/07/05 08:37:04;;;;;;;23.42;2.42;;;;;;;27.04;23.94;100798.91;5055626;28;20124;-63
2022/07/05 08:39:31;;;;;;;18.38;2.70;;;;;;;27.07;24.36;100798.13;5055860;28;20571;-64
2022/07/05 08:41:59;;;;;;;12.13;2.50;;;;;;;27.04;24.27;100794.13;5055799;28;20073;-64
2022/07/05 08:44:29;;;;;;;15.90;2.40;;;;;;;27.02;24.83;100795.69;5054319;28;20032;-63
2022/07/05 08:46:57;;;;;;;13.00;3.33;;;;;;;27.08;24.68;100796.97;5055647;28;20033;-61
2022/07/05 08:49:26;;;;;;;22.65;3.60;;;;;;;27.04;24.57;100804.47;5054941;28;20116;-60
2022/07/05 08:51:54;;;;;;;11.65;3.25;;;;;;;26.98;24.87;100800.38;5055703;28;20024;-60
2022/07/05 08:54:23;;;;;;;18.52;3.47;;;;;;;26.87;24.99;100788.22;5055200;28;20032;-62
2022/07/05 08:56:51;;;;;;;16.05;3.30;;;;;;;26.94;24.97;100810.66;5055470;28;20225;-61
2022/07/05 08:59:18;;;;;;;9.75;3.42;;;;;;;26.85;25.17;100801.75;5055531;28;20483;-60
2022/07/05 09:01:49;;;;;;;22.15;3.55;;;;;;;26.75;25.54;100804.00;5055300;28;20025;-60
2022/07/05 09:04:17;;;;;;;15.93;3.72;;;;;;;26.70;25.84;100809.88;5055297;28;20090;-61
2022/07/05 09:06:50;;;;;;;13.90;3.60;;;;;;;26.71;25.20;100803.09;5055207;28;20421;-62
2022/07/05 09:09:18;;;;;;;14.73;3.53;;;;;;;26.67;25.78;100807.03;5055335;28;20594;-61
2022/07/05 09:11:49;;;;;;;11.10;3.38;;;;;;;26.63;25.57;100809.75;5055277;28;20032;-61
2022/07/05 09:14:22;;;;;;;9.25;2.92;;;;;;;26.53;25.81;100815.13;5055191;28;20091;-62
2022/07/05 09:16:49;;;;;;;10.10;2.70;;;;;;;26.47;25.90;100804.28;5054986;28;20072;-61
2022/07/05 09:19:15;;;;;;;10.95;2.90;;;;;;;26.44;25.38;100804.22;5055038;28;20108;-61
2022/07/05 09:21:43;;;;;;;12.18;2.88;;;;;;;26.45;25.66;100803.84;5053742;28;20037;-62
2022/07/05 09:24:11;;;;;;;12.90;2.58;;;;;;;26.44;25.17;100818.97;5053457;28;20040;-60
2022/07/05 09:26:39;;;;;;;13.55;2.78;;;;;;;26.27;25.55;100808.25;5054165;28;20021;-60
2022/07/05 09:29:11;;;;;;;14.05;2.80;;;;;;;26.17;25.78;100823.59;5053822;28;20024;-61
2022/07/05 09:31:41;;;;;;;8.57;2.80;;;;;;;26.17;25.61;100814.41;5050781;28;20032;-59
2022/07/05 09:34:10;;;;;;;7.50;2.47;;;;;;;26.16;25.75;100823.97;5052117;28;20049;-61
2022/07/05 09:36:57;;;;;;;7.57;2.72;;;;;;;26.15;25.96;100825.94;5050935;28;20033;-60
2022/07/05 09:39:30;;;;;;;9.38;2.67;;;;;;;26.14;25.25;100824.31;5032761;28;20053;-61
2022/07/05 09:42:26;;;;;;;10.27;2.72;;;;;;;26.13;25.23;100821.91;5032861;28;20392;-59
2022/07/05 09:44:54;;;;;;;9.60;3.08;;;;;;;26.14;24.91;100827.13;5039251;28;20103;-60
2022/07/05 09:47:23;;;;;;;11.20;3.50;;;;;;;26.13;24.53;100824.69;5033361;28;20068;-60
2022/07/05 09:49:52;;;;;;;8.68;3.42;;;;;;;26.10;25.35;100820.66;5034424;28;20037;-60
2022/07/05 09:52:33;;;;;;;16.80;4.10;;;;;;;26.07;25.50;100815.84;5034560;28;20079;-62
2022/07/05 09:55:05;;;;;;;10.25;4.15;;;;;;;26.10;24.97;100826.25;5034349;28;20037;-60
2022/07/05 09:57:33;;;;;;;19.55;3.95;;;;;;;26.08;24.96;100823.03;5034566;28;20040;-61
2022/07/05 10:00:10;;;;;;;17.42;4.10;;;;;;;26.11;24.97;100822.28;5034283;28;20076;-61
2022/07/05 10:02:41;;;;;;;13.77;3.72;;;;;;;26.13;24.78;100819.94;5034482;28;20095;-61
2022/07/05 10:05:16;;;;;;;9.70;3.80;;;;;;;26.39;24.60;100815.66;5034084;28;20084;-62
2022/07/05 10:07:50;;;;;;;9.55;3.22;;;;;;;26.27;24.51;100822.19;5051914;28;20033;-61
2022/07/05 10:10:25;;;;;;;9.57;3.00;;;;;;;26.26;24.36;100819.78;5053221;28;20468;-62
2022/07/05 10:12:55;;;;;;;8.52;3.20;;;;;;;26.30;24.12;100820.66;5052982;28;20037;-62
2022/07/05 10:15:25;;;;;;;12.65;3.00;;;;;;;26.31;24.12;100823.06;5053195;28;20033;-61
2022/07/05 10:18:02;;;;;;;6.45;2.70;;;;;;;26.23;24.68;100815.75;5053082;28;20099;-60
2022/07/05 10:20:45;;;;;;;11.48;3.10;;;;;;;26.24;24.95;100814.59;5053087;28;20043;-61
2022/07/05 10:23:16;;;;;;;9.95;3.35;;;;;;;26.25;24.62;100823.75;5051996;28;20036;-62
2022/07/05 10:25:49;;;;;;;10.90;2.88;;;;;;;26.24;24.94;100822.13;5051856;28;20059;-62
2022/07/05 10:28:16;;;;;;;8.75;2.88;;;;;;;26.19;25.65;100824.03;5052806;28;20036;-62
2022/07/05 10:30:49;;;;;;;9.25;2.85;;;;;;;26.20;26.24;100822.84;5052875;28;20114;-62
2022/07/05 10:33:21;;;;;;;14.60;3.20;;;;;;;26.19;26.21;100817.66;5052762;28;20102;-62
2022/07/05 10:35:48;;;;;;;14.02;3.63;;;;;;;26.19;27.16;100824.03;5052546;28;20044;-61
2022/07/05 10:38:15;;;;;;;14.32;4.03;;;;;;;26.20;27.62;100828.41;5052672;28;20029;-62
2022/07/05 10:40:46;;;;;;;14.85;3.78;;;;;;;26.32;28.47;100823.88;5051844;28;20033;-61
2022/07/05 10:43:15;;;;;;;13.27;3.85;;;;;;;26.35;28.58;100826.75;5052525;28;20041;-62
2022/07/05 10:45:51;;;;;;;13.23;3.60;;;;;;;26.27;29.67;100811.06;5052343;28;20040;-62
2022/07/05 10:48:26;;;;;;;17.23;4.15;;;;;;;26.36;30.70;100831.13;5052687;28;20041;-62
2022/07/05 10:51:15;;;;;;;14.38;4.22;;;;;;;26.45;31.71;100825.34;5052254;28;20391;-62
2022/07/05 10:53:41;;;;;;;24.17;4.85;;;;;;;26.33;32.11;100831.84;5052112;28;20048;-62
2022/07/05 10:56:08;;;;;;;20.63;5.45;;;;;;;26.26;33.20;100839.28;5052409;28;20522;-61
2022/07/05 10:58:38;;;;;;;17.33;5.72;;;;;;;26.22;33.08;100835.63;5052090;28;20051;-61
2022/07/05 11:01:19;;;;;;;18.40;5.30;;;;;;;26.15;34.57;100842.66;5052192;28;20115;-61
2022/07/05 11:03:55;;;;;;;21.15;4.75;;;;;;;26.15;34.41;100850.19;5052166;28;20514;-62
2022/07/05 11:06:31;;;;;;;17.90;5.22;;;;;;;26.07;34.65;100837.31;5052168;28;20086;-60
2022/07/05 11:08:57;;;;;;;21.58;5.85;;;;;;;26.15;35.36;100847.41;5052733;28;20025;-61
2022/07/05 11:11:29;;;;;;;20.80;5.88;;;;;;;26.39;35.86;100854.69;5052957;28;20037;-61
2022/07/05 11:14:01;;;;;;;15.00;5.90;;;;;;;26.38;37.39;100850.28;5052837;28;20041;-61
2022/07/05 11:16:35;;;;;;;24.23;8.77;;;;;;;26.29;38.93;100853.28;5052847;28;20031;-60
2022/07/05 11:19:10;;;;;;;24.80;10.27;;;;;;;26.47;40.28;100853.66;5052242;28;20386;-62
2022/07/05 11:21:40;;;;;;;36.47;10.43;;;;;;;26.47;42.81;100853.66;5052755;28;20037;-60
2022/07/05 11:24:20;;;;;;;27.08;8.32;;;;;;;26.43;44.61;100853.59;5052048;28;20045;-61
2022/07/05 11:26:54;;;;;;;21.15;6.80;;;;;;;26.42;46.56;100867.91;5052584;28;20032;-62
2022/07/05 11:29:47;;;;;;;21.88;7.13;;;;;;;26.36;46.10;100864.59;5052700;28;20044;-61
2022/07/05 11:32:18;;;;;;;16.48;5.50;;;;;;;26.40;47.05;100861.88;5052680;28;20033;-62